sensor_id;sensor_type;location;lat;lon;timestamp;P1;durP1;ratioP1;P2;durP2;ratioP2
34775;SDS011;20989;52.566;13.346;2023-05-24T00:00:20;1.60;;;1.30;;
34775;SDS011;20989;52.566;13.346;2023-05-24T00:03:21;2.60;;;1.20;;
34775;SDS011;20989;52.566;13.346;2023-05-24T00:06:22;1.25;;;1.00;;
34775;SDS011;20989;52.566;13.346;2023-05-24T00:09:25;1.70;;;1.20;;
34775;SDS011;20989;52.566;13.346;2023-05-24T00:12:25;1.02;;;0.90;;
34775;SDS011;20989;52.566;13.346;2023-05-24T00:15:26;1.13;;;1.00;;
34775;SDS011;20989;52.566;13.346;2023-05-24T00:18:27;1.40;;;1.30;;
34775;SDS011;20989;52.566;13.346;2023-05-24T00:21:30;1.38;;;0.98;;
34775;SDS011;20989;52.566;13.346;2023-05-24T00:24:33;1.40;;;1.30;;
34775;SDS011;20989;52.566;13.346;2023-05-24T00:27:34;1.17;;;1.08;;
34775;SDS011;20989;52.566;13.346;2023-05-24T00:30:37;1.23;;;1.08;;
34775;SDS011;20989;52.566;13.346;2023-05-24T00:33:37;1.00;;;0.85;;
34775;SDS011;20989;52.566;13.346;2023-05-24T00:36:38;1.30;;;1.00;;
34775;SDS011;20989;52.566;13.346;2023-05-24T00:39:39;1.00;;;0.80;;
34775;SDS011;20989;52.566;13.346;2023-05-24T00:42:40;1.27;;;1.08;;
34775;SDS011;20989;52.566;13.346;2023-05-24T00:45:41;1.05;;;1.02;;
34775;SDS011;20989;52.566;13.346;2023-05-24T00:48:43;1.90;;;1.00;;
34775;SDS011;20989;52.566;13.346;2023-05-24T00:51:45;2.33;;;1.10;;
34775;SDS011;20989;52.566;13.346;2023-05-24T00:54:46;2.33;;;0.88;;
34775;SDS011;20989;52.566;13.346;2023-05-24T00:57:47;2.08;;;1.10;;
34775;SDS011;20989;52.566;13.346;2023-05-24T01:00:51;0.77;;;0.77;;
34775;SDS011;20989;52.566;13.346;2023-05-24T01:03:55;0.73;;;0.68;;
34775;SDS011;20989;52.566;13.346;2023-05-24T01:11:03;1.10;;;0.83;;
34775;SDS011;20989;52.566;13.346;2023-05-24T01:14:24;0.90;;;0.90;;
34775;SDS011;20989;52.566;13.346;2023-05-24T01:17:39;1.63;;;0.95;;
34775;SDS011;20989;52.566;13.346;2023-05-24T01:24:43;1.83;;;1.13;;
34775;SDS011;20989;52.566;13.346;2023-05-24T01:28:07;1.35;;;1.05;;
34775;SDS011;20989;52.566;13.346;2023-05-24T01:31:11;1.20;;;1.00;;
34775;SDS011;20989;52.566;13.346;2023-05-24T01:34:13;0.93;;;0.93;;
34775;SDS011;20989;52.566;13.346;2023-05-24T01:37:14;1.20;;;0.85;;
34775;SDS011;20989;52.566;13.346;2023-05-24T01:40:15;1.42;;;1.17;;
34775;SDS011;20989;52.566;13.346;2023-05-24T01:46:28;1.60;;;0.95;;
34775;SDS011;20989;52.566;13.346;2023-05-24T01:49:41;1.42;;;0.90;;
34775;SDS011;20989;52.566;13.346;2023-05-24T01:52:48;1.10;;;1.08;;
34775;SDS011;20989;52.566;13.346;2023-05-24T01:55:52;1.38;;;0.98;;
34775;SDS011;20989;52.566;13.346;2023-05-24T01:58:54;1.13;;;1.02;;
34775;SDS011;20989;52.566;13.346;2023-05-24T02:01:57;2.80;;;0.80;;
34775;SDS011;20989;52.566;13.346;2023-05-24T02:04:58;1.10;;;1.10;;
34775;SDS011;20989;52.566;13.346;2023-05-24T02:07:59;1.10;;;0.68;;
34775;SDS011;20989;52.566;13.346;2023-05-24T02:11:00;1.42;;;0.90;;
34775;SDS011;20989;52.566;13.346;2023-05-24T02:14:01;1.27;;;0.82;;
34775;SDS011;20989;52.566;13.346;2023-05-24T02:17:02;1.65;;;0.70;;
34775;SDS011;20989;52.566;13.346;2023-05-24T02:20:05;1.58;;;0.80;;
34775;SDS011;20989;52.566;13.346;2023-05-24T02:23:06;0.70;;;0.70;;
34775;SDS011;20989;52.566;13.346;2023-05-24T02:26:07;1.17;;;0.90;;
34775;SDS011;20989;52.566;13.346;2023-05-24T02:29:10;0.95;;;0.88;;
34775;SDS011;20989;52.566;13.346;2023-05-24T02:32:11;0.90;;;0.82;;
34775;SDS011;20989;52.566;13.346;2023-05-24T02:35:12;0.77;;;0.77;;
34775;SDS011;20989;52.566;13.346;2023-05-24T02:38:13;1.17;;;0.80;;
34775;SDS011;20989;52.566;13.346;2023-05-24T02:41:14;1.10;;;1.00;;
34775;SDS011;20989;52.566;13.346;2023-05-24T02:44:17;0.60;;;0.60;;
34775;SDS011;20989;52.566;13.346;2023-05-24T02:47:17;0.82;;;0.82;;
34775;SDS011;20989;52.566;13.346;2023-05-24T02:50:18;1.40;;;0.75;;
34775;SDS011;20989;52.566;13.346;2023-05-24T02:53:19;1.15;;;1.05;;
34775;SDS011;20989;52.566;13.346;2023-05-24T02:56:20;0.77;;;0.60;;
34775;SDS011;20989;52.566;13.346;2023-05-24T02:59:21;0.88;;;0.77;;
34775;SDS011;20989;52.566;13.346;2023-05-24T03:02:22;1.15;;;0.80;;
34775;SDS011;20989;52.566;13.346;2023-05-24T03:05:23;0.77;;;0.77;;
34775;SDS011;20989;52.566;13.346;2023-05-24T03:08:24;0.68;;;0.60;;
34775;SDS011;20989;52.566;13.346;2023-05-24T03:11:24;0.88;;;0.80;;
34775;SDS011;20989;52.566;13.346;2023-05-24T03:14:26;1.63;;;1.10;;
34775;SDS011;20989;52.566;13.346;2023-05-24T03:17:26;1.13;;;1.00;;
34775;SDS011;20989;52.566;13.346;2023-05-24T03:20:27;1.02;;;0.90;;
34775;SDS011;20989;52.566;13.346;2023-05-24T03:23:28;1.25;;;1.02;;
34775;SDS011;20989;52.566;13.346;2023-05-24T03:26:29;1.60;;;1.23;;
34775;SDS011;20989;52.566;13.346;2023-05-24T03:29:30;0.95;;;0.95;;
34775;SDS011;20989;52.566;13.346;2023-05-24T03:32:31;1.33;;;0.80;;
34775;SDS011;20989;52.566;13.346;2023-05-24T03:35:32;0.85;;;0.80;;
34775;SDS011;20989;52.566;13.346;2023-05-24T03:38:33;1.08;;;0.98;;
34775;SDS011;20989;52.566;13.346;2023-05-24T03:41:34;0.73;;;0.65;;
34775;SDS011;20989;52.566;13.346;2023-05-24T03:44:34;1.02;;;0.93;;
34775;SDS011;20989;52.566;13.346;2023-05-24T03:47:35;0.70;;;0.70;;
34775;SDS011;20989;52.566;13.346;2023-05-24T03:50:36;1.08;;;0.98;;
34775;SDS011;20989;52.566;13.346;2023-05-24T03:53:37;1.10;;;0.90;;
34775;SDS011;20989;52.566;13.346;2023-05-24T03:56:37;1.40;;;0.75;;
34775;SDS011;20989;52.566;13.346;2023-05-24T04:03:35;3.75;;;1.27;;
34775;SDS011;20989;52.566;13.346;2023-05-24T04:06:36;1.20;;;1.10;;
34775;SDS011;20989;52.566;13.346;2023-05-24T04:09:37;0.88;;;0.88;;
34775;SDS011;20989;52.566;13.346;2023-05-24T04:12:39;1.02;;;0.68;;
34775;SDS011;20989;52.566;13.346;2023-05-24T04:15:40;1.55;;;1.23;;
34775;SDS011;20989;52.566;13.346;2023-05-24T04:18:41;1.20;;;1.00;;
34775;SDS011;20989;52.566;13.346;2023-05-24T04:21:41;1.08;;;0.90;;
34775;SDS011;20989;52.566;13.346;2023-05-24T04:24:42;1.00;;;0.85;;
34775;SDS011;20989;52.566;13.346;2023-05-24T04:27:43;1.23;;;0.85;;
34775;SDS011;20989;52.566;13.346;2023-05-24T04:30:49;0.70;;;0.70;;
34775;SDS011;20989;52.566;13.346;2023-05-24T04:33:50;0.90;;;0.90;;
34775;SDS011;20989;52.566;13.346;2023-05-24T04:36:51;1.33;;;0.98;;
34775;SDS011;20989;52.566;13.346;2023-05-24T04:39:52;0.85;;;0.75;;
34775;SDS011;20989;52.566;13.346;2023-05-24T04:42:53;1.83;;;1.10;;
34775;SDS011;20989;52.566;13.346;2023-05-24T04:45:53;0.73;;;0.68;;
34775;SDS011;20989;52.566;13.346;2023-05-24T04:48:54;1.60;;;0.80;;
34775;SDS011;20989;52.566;13.346;2023-05-24T04:51:55;2.05;;;0.90;;
34775;SDS011;20989;52.566;13.346;2023-05-24T04:54:56;1.80;;;0.93;;
34775;SDS011;20989;52.566;13.346;2023-05-24T04:57:57;1.10;;;1.00;;
34775;SDS011;20989;52.566;13.346;2023-05-24T05:00:58;2.65;;;1.30;;
34775;SDS011;20989;52.566;13.346;2023-05-24T05:03:58;1.08;;;0.95;;
34775;SDS011;20989;52.566;13.346;2023-05-24T05:07:00;1.02;;;0.80;;
34775;SDS011;20989;52.566;13.346;2023-05-24T05:10:00;1.65;;;0.90;;
34775;SDS011;20989;52.566;13.346;2023-05-24T05:13:01;1.80;;;0.98;;
34775;SDS011;20989;52.566;13.346;2023-05-24T05:16:02;1.52;;;1.30;;
34775;SDS011;20989;52.566;13.346;2023-05-24T05:19:03;2.72;;;1.30;;
34775;SDS011;20989;52.566;13.346;2023-05-24T05:22:04;2.00;;;1.10;;
34775;SDS011;20989;52.566;13.346;2023-05-24T05:25:05;1.13;;;0.93;;
34775;SDS011;20989;52.566;13.346;2023-05-24T05:28:06;0.75;;;0.73;;
34775;SDS011;20989;52.566;13.346;2023-05-24T05:31:07;1.42;;;0.90;;
34775;SDS011;20989;52.566;13.346;2023-05-24T05:34:08;1.48;;;0.77;;
34775;SDS011;20989;52.566;13.346;2023-05-24T05:37:09;1.02;;;0.80;;
34775;SDS011;20989;52.566;13.346;2023-05-24T05:40:10;1.02;;;0.80;;
34775;SDS011;20989;52.566;13.346;2023-05-24T05:43:11;0.70;;;0.70;;
34775;SDS011;20989;52.566;13.346;2023-05-24T05:46:12;1.20;;;0.93;;
34775;SDS011;20989;52.566;13.346;2023-05-24T05:49:14;2.22;;;1.00;;
34775;SDS011;20989;52.566;13.346;2023-05-24T05:52:17;2.17;;;1.05;;
34775;SDS011;20989;52.566;13.346;2023-05-24T05:55:18;1.63;;;1.00;;
34775;SDS011;20989;52.566;13.346;2023-05-24T05:58:19;1.70;;;1.00;;
34775;SDS011;20989;52.566;13.346;2023-05-24T06:01:20;1.15;;;1.05;;
34775;SDS011;20989;52.566;13.346;2023-05-24T06:04:21;0.75;;;0.73;;
34775;SDS011;20989;52.566;13.346;2023-05-24T06:07:21;3.72;;;1.70;;
34775;SDS011;20989;52.566;13.346;2023-05-24T06:10:22;4.35;;;1.50;;
34775;SDS011;20989;52.566;13.346;2023-05-24T06:13:23;3.53;;;1.58;;
34775;SDS011;20989;52.566;13.346;2023-05-24T06:16:25;56.63;;;4.22;;
34775;SDS011;20989;52.566;13.346;2023-05-24T06:19:26;43.55;;;3.95;;
34775;SDS011;20989;52.566;13.346;2023-05-24T06:22:27;30.70;;;2.50;;
34775;SDS011;20989;52.566;13.346;2023-05-24T06:25:28;22.83;;;2.33;;
34775;SDS011;20989;52.566;13.346;2023-05-24T06:28:30;23.05;;;2.88;;
34775;SDS011;20989;52.566;13.346;2023-05-24T06:31:31;28.17;;;3.63;;
34775;SDS011;20989;52.566;13.346;2023-05-24T06:34:32;17.15;;;3.45;;
34775;SDS011;20989;52.566;13.346;2023-05-24T06:37:32;18.63;;;3.15;;
34775;SDS011;20989;52.566;13.346;2023-05-24T06:40:33;24.45;;;3.55;;
34775;SDS011;20989;52.566;13.346;2023-05-24T06:43:34;15.95;;;3.30;;
34775;SDS011;20989;52.566;13.346;2023-05-24T06:46:35;23.38;;;5.38;;
34775;SDS011;20989;52.566;13.346;2023-05-24T06:49:36;19.00;;;5.40;;
34775;SDS011;20989;52.566;13.346;2023-05-24T06:52:37;26.95;;;5.85;;
34775;SDS011;20989;52.566;13.346;2023-05-24T06:55:37;19.60;;;5.60;;
34775;SDS011;20989;52.566;13.346;2023-05-24T06:58:38;23.02;;;6.50;;
34775;SDS011;20989;52.566;13.346;2023-05-24T07:01:39;23.70;;;5.60;;
34775;SDS011;20989;52.566;13.346;2023-05-24T07:04:41;15.85;;;5.03;;
34775;SDS011;20989;52.566;13.346;2023-05-24T07:07:42;16.30;;;5.88;;
34775;SDS011;20989;52.566;13.346;2023-05-24T07:10:43;25.25;;;5.93;;
34775;SDS011;20989;52.566;13.346;2023-05-24T07:13:44;22.35;;;5.97;;
34775;SDS011;20989;52.566;13.346;2023-05-24T07:16:45;17.55;;;6.10;;
34775;SDS011;20989;52.566;13.346;2023-05-24T07:19:47;23.67;;;7.32;;
34775;SDS011;20989;52.566;13.346;2023-05-24T07:22:47;17.92;;;5.38;;
34775;SDS011;20989;52.566;13.346;2023-05-24T07:25:48;17.33;;;5.43;;
34775;SDS011;20989;52.566;13.346;2023-05-24T07:28:49;14.15;;;4.90;;
34775;SDS011;20989;52.566;13.346;2023-05-24T07:31:50;19.73;;;5.47;;
34775;SDS011;20989;52.566;13.346;2023-05-24T07:34:51;20.10;;;5.30;;
34775;SDS011;20989;52.566;13.346;2023-05-24T07:37:52;12.70;;;5.10;;
34775;SDS011;20989;52.566;13.346;2023-05-24T07:40:52;18.40;;;5.88;;
34775;SDS011;20989;52.566;13.346;2023-05-24T07:43:53;15.48;;;5.13;;
34775;SDS011;20989;52.566;13.346;2023-05-24T07:46:54;15.30;;;4.78;;
34775;SDS011;20989;52.566;13.346;2023-05-24T07:49:56;16.77;;;4.43;;
34775;SDS011;20989;52.566;13.346;2023-05-24T07:52:56;17.80;;;5.22;;
34775;SDS011;20989;52.566;13.346;2023-05-24T07:55:57;20.92;;;5.72;;
34775;SDS011;20989;52.566;13.346;2023-05-24T07:58:58;15.93;;;5.35;;
34775;SDS011;20989;52.566;13.346;2023-05-24T08:02:04;20.52;;;5.97;;
34775;SDS011;20989;52.566;13.346;2023-05-24T08:05:05;19.08;;;5.35;;
34775;SDS011;20989;52.566;13.346;2023-05-24T08:08:08;18.65;;;5.60;;
34775;SDS011;20989;52.566;13.346;2023-05-24T08:11:09;20.05;;;5.53;;
34775;SDS011;20989;52.566;13.346;2023-05-24T08:14:10;14.23;;;4.93;;
34775;SDS011;20989;52.566;13.346;2023-05-24T08:17:11;21.83;;;5.93;;
34775;SDS011;20989;52.566;13.346;2023-05-24T08:20:12;20.60;;;4.28;;
34775;SDS011;20989;52.566;13.346;2023-05-24T08:23:16;14.23;;;4.30;;
34775;SDS011;20989;52.566;13.346;2023-05-24T08:26:17;10.40;;;3.88;;
34775;SDS011;20989;52.566;13.346;2023-05-24T08:29:19;10.15;;;4.20;;
34775;SDS011;20989;52.566;13.346;2023-05-24T08:32:20;11.70;;;4.13;;
34775;SDS011;20989;52.566;13.346;2023-05-24T08:35:21;18.38;;;4.60;;
34775;SDS011;20989;52.566;13.346;2023-05-24T08:38:22;35.50;;;5.05;;
34775;SDS011;20989;52.566;13.346;2023-05-24T08:41:22;13.63;;;4.13;;
34775;SDS011;20989;52.566;13.346;2023-05-24T08:44:23;10.52;;;3.60;;
34775;SDS011;20989;52.566;13.346;2023-05-24T08:47:25;16.38;;;5.15;;
34775;SDS011;20989;52.566;13.346;2023-05-24T08:50:28;14.40;;;4.47;;
34775;SDS011;20989;52.566;13.346;2023-05-24T08:53:30;13.85;;;4.57;;
34775;SDS011;20989;52.566;13.346;2023-05-24T08:56:33;13.25;;;3.90;;
34775;SDS011;20989;52.566;13.346;2023-05-24T08:59:34;11.88;;;4.10;;
34775;SDS011;20989;52.566;13.346;2023-05-24T09:02:35;14.85;;;4.28;;
34775;SDS011;20989;52.566;13.346;2023-05-24T09:05:40;8.70;;;3.90;;
34775;SDS011;20989;52.566;13.346;2023-05-24T09:08:42;9.25;;;3.28;;
34775;SDS011;20989;52.566;13.346;2023-05-24T09:11:44;14.77;;;4.18;;
34775;SDS011;20989;52.566;13.346;2023-05-24T09:14:48;9.63;;;4.10;;
34775;SDS011;20989;52.566;13.346;2023-05-24T09:17:49;10.13;;;3.55;;
34775;SDS011;20989;52.566;13.346;2023-05-24T09:20:50;12.43;;;3.72;;
34775;SDS011;20989;52.566;13.346;2023-05-24T09:23:51;10.60;;;3.47;;
34775;SDS011;20989;52.566;13.346;2023-05-24T09:26:53;10.07;;;3.00;;
34775;SDS011;20989;52.566;13.346;2023-05-24T09:29:54;7.40;;;3.00;;
34775;SDS011;20989;52.566;13.346;2023-05-24T09:32:56;6.70;;;2.58;;
34775;SDS011;20989;52.566;13.346;2023-05-24T09:35:59;6.38;;;3.00;;
34775;SDS011;20989;52.566;13.346;2023-05-24T09:39:05;7.65;;;3.03;;
34775;SDS011;20989;52.566;13.346;2023-05-24T09:42:19;6.63;;;3.13;;
34775;SDS011;20989;52.566;13.346;2023-05-24T09:45:23;7.93;;;3.05;;
34775;SDS011;20989;52.566;13.346;2023-05-24T09:48:24;8.43;;;3.25;;
34775;SDS011;20989;52.566;13.346;2023-05-24T09:51:25;7.32;;;3.15;;
34775;SDS011;20989;52.566;13.346;2023-05-24T09:54:26;6.53;;;2.80;;
34775;SDS011;20989;52.566;13.346;2023-05-24T09:57:27;5.28;;;2.55;;
34775;SDS011;20989;52.566;13.346;2023-05-24T10:00:28;6.13;;;2.88;;
34775;SDS011;20989;52.566;13.346;2023-05-24T10:03:32;7.45;;;2.75;;
34775;SDS011;20989;52.566;13.346;2023-05-24T10:06:34;7.93;;;2.88;;
34775;SDS011;20989;52.566;13.346;2023-05-24T10:09:39;6.57;;;2.88;;
34775;SDS011;20989;52.566;13.346;2023-05-24T10:12:40;4.25;;;2.92;;
34775;SDS011;20989;52.566;13.346;2023-05-24T10:15:43;6.18;;;2.53;;
34775;SDS011;20989;52.566;13.346;2023-05-24T10:18:44;5.03;;;2.55;;
34775;SDS011;20989;52.566;13.346;2023-05-24T10:21:45;5.43;;;2.30;;
34775;SDS011;20989;52.566;13.346;2023-05-24T10:24:46;6.50;;;3.95;;
34775;SDS011;20989;52.566;13.346;2023-05-24T10:27:54;3.85;;;2.83;;
34775;SDS011;20989;52.566;13.346;2023-05-24T10:34:16;4.55;;;2.80;;
34775;SDS011;20989;52.566;13.346;2023-05-24T10:37:17;8.50;;;2.97;;
34775;SDS011;20989;52.566;13.346;2023-05-24T10:40:21;6.53;;;2.65;;
34775;SDS011;20989;52.566;13.346;2023-05-24T10:43:26;5.13;;;3.15;;
34775;SDS011;20989;52.566;13.346;2023-05-24T10:46:26;5.13;;;2.90;;
34775;SDS011;20989;52.566;13.346;2023-05-24T10:49:28;6.43;;;2.55;;
34775;SDS011;20989;52.566;13.346;2023-05-24T10:52:35;8.43;;;2.70;;
34775;SDS011;20989;52.566;13.346;2023-05-24T10:55:49;4.03;;;2.38;;
34775;SDS011;20989;52.566;13.346;2023-05-24T11:01:58;4.80;;;2.55;;
34775;SDS011;20989;52.566;13.346;2023-05-24T11:05:03;4.50;;;2.80;;
34775;SDS011;20989;52.566;13.346;2023-05-24T11:08:05;5.38;;;3.00;;
34775;SDS011;20989;52.566;13.346;2023-05-24T11:11:10;5.57;;;2.70;;
34775;SDS011;20989;52.566;13.346;2023-05-24T11:14:11;4.82;;;2.50;;
34775;SDS011;20989;52.566;13.346;2023-05-24T11:17:12;4.43;;;2.92;;
34775;SDS011;20989;52.566;13.346;2023-05-24T11:20:13;2.42;;;2.17;;
34775;SDS011;20989;52.566;13.346;2023-05-24T11:23:15;6.45;;;2.97;;
34775;SDS011;20989;52.566;13.346;2023-05-24T11:26:16;4.97;;;2.30;;
34775;SDS011;20989;52.566;13.346;2023-05-24T11:29:17;4.60;;;2.70;;
34775;SDS011;20989;52.566;13.346;2023-05-24T11:32:21;6.75;;;4.00;;
34775;SDS011;20989;52.566;13.346;2023-05-24T11:35:23;8.20;;;3.40;;
34775;SDS011;20989;52.566;13.346;2023-05-24T11:38:29;9.38;;;4.47;;
34775;SDS011;20989;52.566;13.346;2023-05-24T11:41:33;5.13;;;3.47;;
34775;SDS011;20989;52.566;13.346;2023-05-24T11:44:37;8.52;;;3.65;;
34775;SDS011;20989;52.566;13.346;2023-05-24T11:47:38;4.22;;;2.88;;
34775;SDS011;20989;52.566;13.346;2023-05-24T11:50:40;6.65;;;3.50;;
34775;SDS011;20989;52.566;13.346;2023-05-24T11:53:42;4.65;;;2.95;;
34775;SDS011;20989;52.566;13.346;2023-05-24T11:56:45;8.57;;;3.45;;
34775;SDS011;20989;52.566;13.346;2023-05-24T11:59:46;6.95;;;3.25;;
34775;SDS011;20989;52.566;13.346;2023-05-24T12:02:47;11.18;;;3.30;;
34775;SDS011;20989;52.566;13.346;2023-05-24T12:05:48;7.32;;;3.13;;
34775;SDS011;20989;52.566;13.346;2023-05-24T12:08:50;5.60;;;2.90;;
34775;SDS011;20989;52.566;13.346;2023-05-24T12:11:54;3.95;;;2.78;;
34775;SDS011;20989;52.566;13.346;2023-05-24T12:14:56;9.10;;;3.13;;
34775;SDS011;20989;52.566;13.346;2023-05-24T12:17:57;5.72;;;2.80;;
34775;SDS011;20989;52.566;13.346;2023-05-24T12:20:58;3.92;;;3.08;;
34775;SDS011;20989;52.566;13.346;2023-05-24T12:24:13;4.95;;;2.88;;
34775;SDS011;20989;52.566;13.346;2023-05-24T12:27:15;5.22;;;2.65;;
34775;SDS011;20989;52.566;13.346;2023-05-24T12:30:15;4.20;;;3.13;;
34775;SDS011;20989;52.566;13.346;2023-05-24T12:33:20;6.97;;;2.60;;
34775;SDS011;20989;52.566;13.346;2023-05-24T12:36:22;7.32;;;2.72;;
34775;SDS011;20989;52.566;13.346;2023-05-24T12:39:24;4.50;;;2.45;;
34775;SDS011;20989;52.566;13.346;2023-05-24T12:42:30;7.97;;;2.75;;
34775;SDS011;20989;52.566;13.346;2023-05-24T12:45:31;5.00;;;2.17;;
34775;SDS011;20989;52.566;13.346;2023-05-24T12:48:32;3.60;;;2.47;;
34775;SDS011;20989;52.566;13.346;2023-05-24T12:51:33;3.50;;;2.10;;
34775;SDS011;20989;52.566;13.346;2023-05-24T12:54:33;3.63;;;2.45;;
34775;SDS011;20989;52.566;13.346;2023-05-24T12:57:34;9.38;;;2.67;;
34775;SDS011;20989;52.566;13.346;2023-05-24T13:00:35;7.82;;;2.33;;
34775;SDS011;20989;52.566;13.346;2023-05-24T13:03:37;6.55;;;2.83;;
34775;SDS011;20989;52.566;13.346;2023-05-24T13:06:38;4.13;;;2.75;;
34775;SDS011;20989;52.566;13.346;2023-05-24T13:09:39;4.47;;;2.63;;
34775;SDS011;20989;52.566;13.346;2023-05-24T13:12:40;7.10;;;2.67;;
34775;SDS011;20989;52.566;13.346;2023-05-24T13:15:40;4.28;;;2.45;;
34775;SDS011;20989;52.566;13.346;2023-05-24T13:18:43;3.33;;;2.25;;
34775;SDS011;20989;52.566;13.346;2023-05-24T13:21:45;3.33;;;2.05;;
34775;SDS011;20989;52.566;13.346;2023-05-24T13:24:46;4.53;;;2.78;;
34775;SDS011;20989;52.566;13.346;2023-05-24T13:27:46;7.05;;;3.22;;
34775;SDS011;20989;52.566;13.346;2023-05-24T13:30:47;6.47;;;2.83;;
34775;SDS011;20989;52.566;13.346;2023-05-24T13:33:48;6.60;;;2.47;;
34775;SDS011;20989;52.566;13.346;2023-05-24T13:36:51;3.45;;;2.20;;
34775;SDS011;20989;52.566;13.346;2023-05-24T13:39:53;8.48;;;2.92;;
34775;SDS011;20989;52.566;13.346;2023-05-24T13:42:55;5.38;;;2.42;;
34775;SDS011;20989;52.566;13.346;2023-05-24T13:45:56;5.75;;;2.55;;
34775;SDS011;20989;52.566;13.346;2023-05-24T13:48:57;4.90;;;2.05;;
34775;SDS011;20989;52.566;13.346;2023-05-24T13:51:58;5.63;;;2.47;;
34775;SDS011;20989;52.566;13.346;2023-05-24T13:55:01;7.05;;;2.60;;
34775;SDS011;20989;52.566;13.346;2023-05-24T13:58:03;2.45;;;2.25;;
34775;SDS011;20989;52.566;13.346;2023-05-24T14:01:04;5.05;;;2.45;;
34775;SDS011;20989;52.566;13.346;2023-05-24T14:04:06;4.63;;;2.22;;
34775;SDS011;20989;52.566;13.346;2023-05-24T14:07:07;3.00;;;2.00;;
34775;SDS011;20989;52.566;13.346;2023-05-24T14:10:08;4.25;;;1.88;;
34775;SDS011;20989;52.566;13.346;2023-05-24T14:13:10;4.50;;;2.10;;
34775;SDS011;20989;52.566;13.346;2023-05-24T14:16:11;2.70;;;1.92;;
34775;SDS011;20989;52.566;13.346;2023-05-24T14:19:12;2.85;;;1.95;;
34775;SDS011;20989;52.566;13.346;2023-05-24T14:22:13;4.97;;;2.10;;
34775;SDS011;20989;52.566;13.346;2023-05-24T14:25:13;3.67;;;1.90;;
34775;SDS011;20989;52.566;13.346;2023-05-24T14:28:15;3.20;;;1.98;;
34775;SDS011;20989;52.566;13.346;2023-05-24T14:31:15;1.60;;;1.50;;
34775;SDS011;20989;52.566;13.346;2023-05-24T14:34:16;4.55;;;2.15;;
34775;SDS011;20989;52.566;13.346;2023-05-24T14:37:17;7.00;;;2.13;;
34775;SDS011;20989;52.566;13.346;2023-05-24T14:40:18;3.20;;;2.08;;
34775;SDS011;20989;52.566;13.346;2023-05-24T14:43:18;2.92;;;2.17;;
34775;SDS011;20989;52.566;13.346;2023-05-24T14:46:19;2.17;;;1.95;;
34775;SDS011;20989;52.566;13.346;2023-05-24T14:49:20;4.22;;;1.83;;
34775;SDS011;20989;52.566;13.346;2023-05-24T14:52:21;3.25;;;1.88;;
34775;SDS011;20989;52.566;13.346;2023-05-24T14:55:22;2.78;;;1.77;;
34775;SDS011;20989;52.566;13.346;2023-05-24T14:58:23;4.03;;;2.05;;
34775;SDS011;20989;52.566;13.346;2023-05-24T15:01:25;2.03;;;1.83;;
34775;SDS011;20989;52.566;13.346;2023-05-24T15:04:26;2.78;;;1.95;;
34775;SDS011;20989;52.566;13.346;2023-05-24T15:07:27;2.83;;;1.55;;
34775;SDS011;20989;52.566;13.346;2023-05-24T15:10:27;1.90;;;1.42;;
34775;SDS011;20989;52.566;13.346;2023-05-24T15:13:28;1.75;;;1.65;;
34775;SDS011;20989;52.566;13.346;2023-05-24T15:16:30;4.35;;;2.00;;
34775;SDS011;20989;52.566;13.346;2023-05-24T15:19:31;3.05;;;1.63;;
34775;SDS011;20989;52.566;13.346;2023-05-24T15:22:31;4.28;;;1.98;;
34775;SDS011;20989;52.566;13.346;2023-05-24T15:25:33;2.28;;;2.00;;
34775;SDS011;20989;52.566;13.346;2023-05-24T15:28:33;2.10;;;1.88;;
34775;SDS011;20989;52.566;13.346;2023-05-24T15:31:34;3.33;;;1.65;;
34775;SDS011;20989;52.566;13.346;2023-05-24T15:34:35;1.67;;;1.40;;
34775;SDS011;20989;52.566;13.346;2023-05-24T15:37:36;2.60;;;1.80;;
34775;SDS011;20989;52.566;13.346;2023-05-24T15:40:36;2.28;;;1.70;;
34775;SDS011;20989;52.566;13.346;2023-05-24T15:43:37;1.67;;;1.38;;
34775;SDS011;20989;52.566;13.346;2023-05-24T15:46:38;2.28;;;2.08;;
34775;SDS011;20989;52.566;13.346;2023-05-24T15:49:40;1.90;;;1.70;;
34775;SDS011;20989;52.566;13.346;2023-05-24T15:52:40;2.30;;;1.50;;
34775;SDS011;20989;52.566;13.346;2023-05-24T15:55:41;1.98;;;1.70;;
34775;SDS011;20989;52.566;13.346;2023-05-24T15:58:42;2.10;;;1.70;;
34775;SDS011;20989;52.566;13.346;2023-05-24T16:01:44;2.55;;;1.77;;
34775;SDS011;20989;52.566;13.346;2023-05-24T16:04:45;1.55;;;1.23;;
34775;SDS011;20989;52.566;13.346;2023-05-24T16:07:46;2.15;;;1.50;;
34775;SDS011;20989;52.566;13.346;2023-05-24T16:10:46;3.65;;;2.03;;
34775;SDS011;20989;52.566;13.346;2023-05-24T16:13:48;2.47;;;1.70;;
34775;SDS011;20989;52.566;13.346;2023-05-24T16:16:49;2.28;;;1.88;;
34775;SDS011;20989;52.566;13.346;2023-05-24T16:19:50;2.22;;;1.58;;
34775;SDS011;20989;52.566;13.346;2023-05-24T16:22:50;2.33;;;1.70;;
34775;SDS011;20989;52.566;13.346;2023-05-24T16:25:51;1.63;;;1.52;;
34775;SDS011;20989;52.566;13.346;2023-05-24T16:28:52;2.25;;;1.33;;
34775;SDS011;20989;52.566;13.346;2023-05-24T16:31:53;2.28;;;1.88;;
34775;SDS011;20989;52.566;13.346;2023-05-24T16:34:54;1.70;;;1.60;;
34775;SDS011;20989;52.566;13.346;2023-05-24T16:37:55;1.90;;;1.55;;
34775;SDS011;20989;52.566;13.346;2023-05-24T16:40:55;8.02;;;1.75;;
34775;SDS011;20989;52.566;13.346;2023-05-24T16:43:56;2.88;;;1.65;;
34775;SDS011;20989;52.566;13.346;2023-05-24T16:46:57;5.85;;;1.50;;
34775;SDS011;20989;52.566;13.346;2023-05-24T16:49:58;10.45;;;2.97;;
34775;SDS011;20989;52.566;13.346;2023-05-24T16:53:00;6.95;;;2.80;;
34775;SDS011;20989;52.566;13.346;2023-05-24T16:56:01;5.97;;;2.28;;
34775;SDS011;20989;52.566;13.346;2023-05-24T16:59:02;4.03;;;2.03;;
34775;SDS011;20989;52.566;13.346;2023-05-24T17:02:03;3.92;;;1.92;;
34775;SDS011;20989;52.566;13.346;2023-05-24T17:05:05;5.00;;;1.80;;
34775;SDS011;20989;52.566;13.346;2023-05-24T17:08:06;6.75;;;1.83;;
34775;SDS011;20989;52.566;13.346;2023-05-24T17:11:07;4.95;;;1.90;;
34775;SDS011;20989;52.566;13.346;2023-05-24T17:14:08;3.92;;;1.80;;
34775;SDS011;20989;52.566;13.346;2023-05-24T17:17:08;3.80;;;1.88;;
34775;SDS011;20989;52.566;13.346;2023-05-24T17:20:09;5.05;;;1.70;;
34775;SDS011;20989;52.566;13.346;2023-05-24T17:23:11;3.33;;;1.92;;
34775;SDS011;20989;52.566;13.346;2023-05-24T17:26:13;2.80;;;1.70;;
34775;SDS011;20989;52.566;13.346;2023-05-24T17:29:14;2.80;;;1.70;;
34775;SDS011;20989;52.566;13.346;2023-05-24T17:32:15;2.58;;;2.00;;
34775;SDS011;20989;52.566;13.346;2023-05-24T17:35:15;2.28;;;2.00;;
34775;SDS011;20989;52.566;13.346;2023-05-24T17:38:16;1.92;;;1.70;;
34775;SDS011;20989;52.566;13.346;2023-05-24T17:41:17;3.25;;;1.67;;
34775;SDS011;20989;52.566;13.346;2023-05-24T17:44:18;4.47;;;1.77;;
34775;SDS011;20989;52.566;13.346;2023-05-24T17:47:18;2.58;;;1.75;;
34775;SDS011;20989;52.566;13.346;2023-05-24T17:50:19;5.18;;;1.45;;
34775;SDS011;20989;52.566;13.346;2023-05-24T17:53:20;4.32;;;2.05;;
34775;SDS011;20989;52.566;13.346;2023-05-24T17:56:21;3.35;;;2.05;;
34775;SDS011;20989;52.566;13.346;2023-05-24T17:59:22;2.42;;;1.70;;
34775;SDS011;20989;52.566;13.346;2023-05-24T18:02:23;1.70;;;1.60;;
34775;SDS011;20989;52.566;13.346;2023-05-24T18:05:23;2.80;;;1.80;;
34775;SDS011;20989;52.566;13.346;2023-05-24T18:08:24;3.55;;;1.85;;
34775;SDS011;20989;52.566;13.346;2023-05-24T18:11:25;2.90;;;1.60;;
34775;SDS011;20989;52.566;13.346;2023-05-24T18:14:27;1.40;;;1.30;;
34775;SDS011;20989;52.566;13.346;2023-05-24T18:17:29;1.85;;;1.60;;